Time;durP1;ratioP1;P1;durP2;ratioP2;P2;SDS_P1;SDS_P2;PMS_P1;PMS_P2;Temp;Humidity;BMP_temperature;BMP_pressure;BME280_temperature;BME280_humidity;BME280_pressure;Samples;Min_cycle;Max_cycle;Signal;HPM_P1;HPM_P2
2022/01/06 00:01:16;;;;;;;1999.90;999.90;;;4.50;99.90;;;;;;5092037;28;20053;-64
2022/01/06 00:03:42;;;;;;;1999.90;999.90;;;4.50;99.90;;;;;;5091130;28;20135;-64
2022/01/06 00:06:09;;;;;;;1999.90;999.90;;;4.50;99.90;;;;;;5092462;28;20044;-63
2022/01/06 00:08:37;;;;;;;1999.90;999.90;;;4.40;99.90;;;;;;5091994;28;20048;-64
2022/01/06 00:11:06;;;;;;;1999.90;999.90;;;4.20;99.90;;;;;;5091286;28;20052;-64
2022/01/06 00:13:44;;;;;;;1999.90;999.90;;;4.30;99.90;;;;;;5093961;28;20059;-63
2022/01/06 00:16:32;;;;;;;1999.90;999.90;;;4.20;99.90;;;;;;5095603;28;20040;-63
2022/01/06 00:24:16;;;;;;;1999.90;999.90;;;4.20;99.90;;;;;;5094569;28;20044;-64
2022/01/06 00:26:43;;;;;;;1999.90;999.90;;;4.20;99.90;;;;;;5095903;28;20105;-64
2022/01/06 00:29:09;;;;;;;1999.90;999.90;;;4.20;99.90;;;;;;5077069;28;20047;-63
2022/01/06 00:31:35;;;;;;;1999.90;999.90;;;4.20;99.90;;;;;;5094671;28;20127;-64
2022/01/06 00:34:01;;;;;;;1999.90;999.90;;;4.20;99.90;;;;;;5095814;28;20044;-64
2022/01/06 00:36:27;;;;;;;1999.90;999.90;;;4.10;99.90;;;;;;5095511;28;20468;-63
2022/01/06 00:38:53;;;;;;;1999.90;999.90;;;4.10;99.90;;;;;;5094280;28;20535;-64
2022/01/06 00:41:19;;;;;;;1999.90;999.90;;;4.00;99.90;;;;;;5095436;28;20036;-63
2022/01/06 00:43:45;;;;;;;1999.90;999.90;;;4.00;99.90;;;;;;5095370;28;20044;-63
2022/01/06 00:46:11;;;;;;;1999.90;999.90;;;4.10;99.90;;;;;;5094297;28;20040;-63
2022/01/06 00:48:36;;;;;;;1999.90;999.90;;;4.10;99.90;;;;;;5094877;28;20044;-64
2022/01/06 00:51:02;;;;;;;1999.90;999.90;;;4.10;99.90;;;;;;5095303;28;20051;-64
2022/01/06 00:53:28;;;;;;;1999.90;999.90;;;4.20;99.90;;;;;;5094342;28;20378;-64
2022/01/06 00:55:54;;;;;;;1999.90;999.90;;;4.20;99.90;;;;;;5094471;28;20047;-64
2022/01/06 00:58:20;;;;;;;1999.90;999.90;;;4.20;99.90;;;;;;5094875;28;20044;-64
2022/01/06 01:00:45;;;;;;;1999.90;999.90;;;4.30;99.90;;;;;;5094141;28;20037;-64
2022/01/06 01:03:15;;;;;;;1999.90;999.90;;;4.30;99.90;;;;;;5094948;28;20447;-63
2022/01/06 01:05:43;;;;;;;1999.90;999.90;;;4.20;99.90;;;;;;5093901;28;20051;-64
2022/01/06 01:08:09;;;;;;;1999.90;999.90;;;4.10;99.90;;;;;;5094544;28;20046;-64
2022/01/06 01:10:35;;;;;;;1999.90;999.90;;;3.90;99.90;;;;;;5094683;28;20044;-63
2022/01/06 01:13:02;;;;;;;1999.90;999.90;;;3.90;99.90;;;;;;5093298;28;20476;-64
2022/01/06 01:15:28;;;;;;;1999.90;999.90;;;3.80;99.90;;;;;;5094650;28;20545;-63
2022/01/06 01:17:54;;;;;;;1999.90;999.90;;;3.70;99.90;;;;;;5076567;28;20048;-64
2022/01/06 01:20:21;;;;;;;1999.90;999.90;;;3.60;99.90;;;;;;5094175;28;20598;-64
2022/01/06 01:22:47;;;;;;;1999.90;999.90;;;3.50;99.90;;;;;;5093835;28;20097;-64
2022/01/06 01:25:14;;;;;;;1999.90;999.90;;;3.30;99.90;;;;;;5093521;28;20473;-63
2022/01/06 01:27:43;;;;;;;1999.90;999.90;;;3.20;99.90;;;;;;5093868;28;20052;-63
2022/01/06 01:30:14;;;;;;;1999.90;999.90;;;3.10;99.90;;;;;;5094552;28;20052;-64
2022/01/06 01:32:46;;;;;;;1999.90;999.90;;;3.10;99.90;;;;;;5094209;28;20101;-63
2022/01/06 01:35:13;;;;;;;1999.90;999.90;;;3.00;99.90;;;;;;5093724;28;20048;-63
2022/01/06 01:37:38;;;;;;;1999.90;999.90;;;2.90;99.90;;;;;;5093827;28;20481;-64
2022/01/06 01:40:06;;;;;;;1999.90;999.90;;;2.90;99.90;;;;;;5093609;28;20044;-63
2022/01/06 01:42:32;;;;;;;1999.90;999.90;;;2.90;99.90;;;;;;5093541;28;20048;-63
2022/01/06 01:44:58;;;;;;;1999.90;999.90;;;2.90;99.90;;;;;;5075977;28;20062;-63
2022/01/06 01:47:37;;;;;;;1999.90;999.90;;;2.80;99.90;;;;;;5094325;28;20048;-63
2022/01/06 01:50:13;;;;;;;1999.90;999.90;;;2.80;99.90;;;;;;5093028;28;20052;-63
2022/01/06 01:52:41;;;;;;;1999.90;999.90;;;2.70;99.90;;;;;;5093439;28;20386;-63
2022/01/06 01:55:08;;;;;;;1999.90;999.90;;;2.70;99.90;;;;;;5092897;28;20074;-63
2022/01/06 01:57:33;;;;;;;1999.90;999.90;;;2.70;99.90;;;;;;5093606;28;20048;-63
2022/01/06 02:00:00;;;;;;;1999.90;999.90;;;2.70;99.90;;;;;;5093785;28;20050;-63
2022/01/06 02:02:27;;;;;;;1999.90;999.90;;;2.70;99.90;;;;;;5092910;28;20044;-63
2022/01/06 02:04:53;;;;;;;1999.90;999.90;;;2.80;99.90;;;;;;5093849;28;20116;-63
2022/01/06 02:07:19;;;;;;;1999.90;999.90;;;2.70;99.90;;;;;;5093197;28;20485;-63
2022/01/06 02:09:45;;;;;;;1999.90;999.90;;;2.70;99.90;;;;;;5093097;28;20089;-63
2022/01/06 02:12:23;;;;;;;1999.90;999.90;;;2.70;99.90;;;;;;5093607;28;20050;-63
2022/01/06 02:14:48;;;;;;;1999.90;999.90;;;2.70;99.90;;;;;;5093238;28;20502;-63
2022/01/06 02:17:14;;;;;;;1999.90;999.90;;;2.60;99.90;;;;;;5092636;28;20040;-63
2022/01/06 02:19:40;;;;;;;1999.90;999.90;;;2.60;99.90;;;;;;5093339;28;20127;-63
2022/01/06 02:22:05;;;;;;;1999.90;999.90;;;2.70;99.90;;;;;;5093478;28;20048;-63
2022/01/06 02:24:31;;;;;;;1999.90;999.90;;;2.60;99.90;;;;;;5092447;28;20079;-63
2022/01/06 02:26:57;;;;;;;1999.90;999.90;;;2.60;99.90;;;;;;5093447;28;20044;-63
2022/01/06 02:29:23;;;;;;;1999.90;999.90;;;2.70;99.90;;;;;;5092906;28;20056;-63
2022/01/06 02:31:48;;;;;;;1999.90;999.90;;;2.80;99.90;;;;;;5092623;28;20047;-64
2022/01/06 02:34:14;;;;;;;1999.90;999.90;;;2.70;99.90;;;;;;5093195;28;20370;-64
2022/01/06 02:36:40;;;;;;;1999.90;999.90;;;2.60;99.90;;;;;;5092748;28;20043;-64
2022/01/06 02:39:06;;;;;;;1999.90;999.90;;;2.60;99.90;;;;;;5092574;28;20465;-63
2022/01/06 02:41:32;;;;;;;1999.90;999.90;;;2.60;99.90;;;;;;5093031;28;20063;-63
2022/01/06 02:43:57;;;;;;;1999.90;999.90;;;2.60;99.90;;;;;;5092470;28;20389;-63
2022/01/06 02:46:23;;;;;;;1999.90;999.90;;;2.60;99.90;;;;;;5093243;28;20044;-63
2022/01/06 02:48:49;;;;;;;1999.90;999.90;;;2.60;99.90;;;;;;5092950;28;20044;-63
2022/01/06 02:51:14;;;;;;;1999.90;999.90;;;2.60;99.90;;;;;;5091483;28;20097;-63
2022/01/06 02:53:40;;;;;;;1999.90;999.90;;;2.60;99.90;;;;;;5093291;28;20071;-63
2022/01/06 02:56:06;;;;;;;1999.90;999.90;;;2.60;99.90;;;;;;5092576;28;20036;-63
2022/01/06 02:58:32;;;;;;;1999.90;999.90;;;2.50;99.90;;;;;;5091904;28;20088;-63
2022/01/06 03:00:57;;;;;;;1999.90;999.90;;;2.40;99.90;;;;;;5092600;28;20055;-63
2022/01/06 03:03:23;;;;;;;1999.90;999.90;;;2.30;99.90;;;;;;5092801;28;20040;-63
2022/01/06 03:05:49;;;;;;;1999.90;999.90;;;2.20;99.90;;;;;;5092074;28;20046;-63
2022/01/06 03:08:15;;;;;;;1999.90;999.90;;;2.10;99.90;;;;;;5092718;28;20088;-63
2022/01/06 03:10:43;;;;;;;1999.90;999.90;;;2.00;99.90;;;;;;5092950;28;20040;-62
2022/01/06 03:13:10;;;;;;;1999.90;999.90;;;1.90;99.90;;;;;;5091685;28;20055;-62
2022/01/06 03:15:36;;;;;;;1999.90;999.90;;;1.90;99.90;;;;;;5092728;28;20044;-63
2022/01/06 03:18:01;;;;;;;1999.90;999.90;;;1.90;99.90;;;;;;5092492;28;20048;-63
2022/01/06 03:20:29;;;;;;;1999.90;999.90;;;2.00;99.90;;;;;;5091900;28;20489;-63
2022/01/06 03:22:56;;;;;;;1999.90;999.90;;;1.90;99.90;;;;;;5092778;28;20464;-63
2022/01/06 03:25:23;;;;;;;1999.90;999.90;;;1.90;99.90;;;;;;5092776;28;20044;-62
2022/01/06 03:27:49;;;;;;;1999.90;999.90;;;1.90;99.90;;;;;;5091478;28;20051;-62
2022/01/06 03:30:17;;;;;;;1999.90;999.90;;;1.90;99.90;;;;;;5092615;28;20040;-62
2022/01/06 03:32:43;;;;;;;1999.90;999.90;;;1.90;99.90;;;;;;5092822;28;20044;-62
2022/01/06 03:35:12;;;;;;;1999.90;999.90;;;1.90;99.90;;;;;;5091279;28;20047;-62
2022/01/06 03:37:39;;;;;;;1999.90;999.90;;;1.80;99.90;;;;;;5092649;28;20040;-62
2022/01/06 03:40:06;;;;;;;1999.90;999.90;;;1.80;99.90;;;;;;5092442;28;20059;-62
2022/01/06 03:42:34;;;;;;;1999.90;999.90;;;1.90;99.90;;;;;;5091467;28;20425;-62
2022/01/06 03:44:59;;;;;;;1999.90;999.90;;;1.90;99.90;;;;;;5092337;28;20152;-62
2022/01/06 03:47:25;;;;;;;1999.90;999.90;;;1.90;99.90;;;;;;5073669;28;20496;-62
2022/01/06 03:49:51;;;;;;;1999.90;999.90;;;1.90;99.90;;;;;;5096183;28;20088;-62
2022/01/06 03:52:17;;;;;;;1999.90;999.90;;;1.80;99.90;;;;;;5095982;28;20040;-62
2022/01/06 03:54:42;;;;;;;1999.90;999.90;;;1.60;99.90;;;;;;5095670;28;20059;-62
2022/01/06 03:57:08;;;;;;;1999.90;999.90;;;1.50;99.90;;;;;;5096115;28;20105;-62
2022/01/06 03:59:35;;;;;;;1999.90;999.90;;;1.40;99.90;;;;;;5096258;28;20477;-62
2022/01/06 04:02:02;;;;;;;1999.90;999.90;;;1.30;99.90;;;;;;5095314;28;20138;-62
2022/01/06 04:04:28;;;;;;;1999.90;999.90;;;1.30;99.90;;;;;;5095798;28;20076;-62
2022/01/06 04:06:53;;;;;;;1999.90;999.90;;;1.20;99.90;;;;;;5096099;28;20091;-62
2022/01/06 04:09:19;;;;;;;1999.90;999.90;;;1.10;99.90;;;;;;5095275;28;20101;-62
2022/01/06 04:11:45;;;;;;;1999.90;999.90;;;1.10;99.90;;;;;;5095151;28;20161;-62
2022/01/06 04:14:10;;;;;;;1999.90;999.90;;;1.10;99.90;;;;;;5095699;28;20044;-62
2022/01/06 04:16:39;;;;;;;1999.90;999.90;;;1.10;99.90;;;;;;5095405;28;20500;-62
2022/01/06 04:19:07;;;;;;;1999.90;999.90;;;1.10;99.90;;;;;;5079736;28;20040;-62
2022/01/06 04:21:33;;;;;;;1999.90;999.90;;;1.20;99.90;;;;;;5095964;28;20459;-62
2022/01/06 04:23:59;;;;;;;1999.90;999.90;;;1.20;99.90;;;;;;5076906;28;20048;-62
2022/01/06 04:26:24;;;;;;;1999.90;999.90;;;1.20;99.90;;;;;;5095377;28;20398;-62
2022/01/06 04:28:50;;;;;;;1999.90;999.90;;;1.20;99.90;;;;;;5095275;28;20141;-62
2022/01/06 04:31:16;;;;;;;1999.90;999.90;;;1.20;99.90;;;;;;5095130;28;20050;-62
2022/01/06 04:33:42;;;;;;;1999.90;999.90;;;1.20;99.90;;;;;;5095355;28;20055;-62
2022/01/06 04:36:08;;;;;;;1999.90;999.90;;;1.20;99.90;;;;;;5095690;28;20036;-62
2022/01/06 04:38:36;;;;;;;1999.90;999.90;;;1.20;99.90;;;;;;5094476;28;20048;-62
2022/01/06 04:41:02;;;;;;;1999.90;999.90;;;1.20;99.90;;;;;;5094954;28;20077;-62
2022/01/06 04:43:27;;;;;;;1999.90;999.90;;;1.20;99.90;;;;;;5095447;28;20052;-62
2022/01/06 04:45:53;;;;;;;1999.90;999.90;;;1.20;99.90;;;;;;5094282;28;20040;-62
2022/01/06 04:48:19;;;;;;;1999.90;999.90;;;1.20;99.90;;;;;;5095244;28;20374;-62
2022/01/06 04:50:45;;;;;;;1999.90;999.90;;;1.20;99.90;;;;;;5094104;28;20035;-62
2022/01/06 04:53:10;;;;;;;1999.90;999.90;;;1.10;99.90;;;;;;5095575;28;20048;-62
2022/01/06 04:55:36;;;;;;;1999.90;999.90;;;1.10;99.90;;;;;;5094893;28;20466;-62
2022/01/06 04:58:02;;;;;;;1999.90;999.90;;;1.20;99.90;;;;;;5094174;28;20052;-62
2022/01/06 05:00:28;;;;;;;1999.90;999.90;;;1.20;99.90;;;;;;5094757;28;20540;-62
2022/01/06 05:02:53;;;;;;;1999.90;999.90;;;1.20;99.90;;;;;;5094470;28;20047;-62
2022/01/06 05:05:19;;;;;;;1999.90;999.90;;;1.20;99.90;;;;;;5094114;28;20044;-62
2022/01/06 05:07:45;;;;;;;1999.90;999.90;;;1.20;99.90;;;;;;5094890;28;20036;-62
2022/01/06 05:10:11;;;;;;;1999.90;999.90;;;1.20;99.90;;;;;;5094696;28;20119;-62
2022/01/06 05:12:42;;;;;;;1999.90;999.90;;;1.30;99.90;;;;;;5087060;28;20558;-62
2022/01/06 05:15:09;;;;;;;1999.90;999.90;;;1.30;99.90;;;;;;5094940;28;20051;-62
2022/01/06 05:17:35;;;;;;;1999.90;999.90;;;1.30;99.90;;;;;;5094675;28;20036;-62
2022/01/06 05:20:01;;;;;;;1999.90;999.90;;;1.20;99.90;;;;;;5093604;28;20543;-62
2022/01/06 05:22:27;;;;;;;1999.90;999.90;;;1.20;99.90;;;;;;5094182;28;20102;-62
2022/01/06 05:24:54;;;;;;;1999.90;999.90;;;1.30;99.90;;;;;;5094730;28;20086;-62
2022/01/06 05:27:19;;;;;;;1999.90;999.90;;;1.40;99.90;;;;;;5093561;28;20139;-62
2022/01/06 05:29:45;;;;;;;1999.90;999.90;;;1.40;99.90;;;;;;5094147;28;20036;-62
2022/01/06 05:32:11;;;;;;;1999.90;999.90;;;1.40;99.90;;;;;;5094721;28;20529;-62
2022/01/06 05:34:37;;;;;;;1999.90;999.90;;;1.30;99.90;;;;;;5093434;28;20401;-62
2022/01/06 05:37:03;;;;;;;1999.90;999.90;;;1.40;99.90;;;;;;5094475;28;20091;-62
2022/01/06 05:39:29;;;;;;;1999.90;999.90;;;1.30;99.90;;;;;;5093736;28;20122;-62
2022/01/06 05:41:54;;;;;;;1999.90;999.90;;;1.40;99.90;;;;;;5093414;28;20264;-62
2022/01/06 05:44:20;;;;;;;1999.90;999.90;;;1.30;99.90;;;;;;5094307;28;20123;-62
2022/01/06 05:46:47;;;;;;;1999.90;999.90;;;1.30;99.90;;;;;;5094161;28;20044;-62
2022/01/06 05:49:15;;;;;;;1999.90;999.90;;;1.30;99.90;;;;;;5092840;28;20512;-62
2022/01/06 05:51:41;;;;;;;1999.90;999.90;;;1.20;99.90;;;;;;5093914;28;20039;-62
2022/01/06 05:54:06;;;;;;;1999.90;999.90;;;1.10;99.90;;;;;;5093346;28;20435;-62
2022/01/06 05:56:32;;;;;;;1999.90;999.90;;;0.90;99.90;;;;;;5093022;28;20438;-62
2022/01/06 05:58:58;;;;;;;1999.90;999.90;;;0.70;99.90;;;;;;5094088;28;20040;-62
2022/01/06 06:01:24;;;;;;;1999.90;999.90;;;0.70;99.90;;;;;;5092497;28;20405;-62
2022/01/06 06:03:50;;;;;;;1999.90;999.90;;;0.70;99.90;;;;;;5081513;28;20052;-62
2022/01/06 06:06:16;;;;;;;1999.90;999.90;;;0.70;99.90;;;;;;5093400;28;20044;-62
2022/01/06 06:08:42;;;;;;;1999.90;999.90;;;0.70;99.90;;;;;;5092881;28;20133;-62
2022/01/06 06:11:08;;;;;;;1999.90;999.90;;;0.70;99.90;;;;;;5093008;28;20470;-62
2022/01/06 06:13:33;;;;;;;1999.90;999.90;;;0.70;99.90;;;;;;5093309;28;20497;-62
2022/01/06 06:15:59;;;;;;;1999.90;999.90;;;0.70;99.90;;;;;;5092854;28;20055;-62
2022/01/06 06:18:25;;;;;;;1999.90;999.90;;;0.70;99.90;;;;;;5093150;28;20036;-62
2022/01/06 06:20:51;;;;;;;1999.90;999.90;;;0.70;99.90;;;;;;5093772;28;20107;-63
2022/01/06 06:23:16;;;;;;;1999.90;999.90;;;0.70;99.90;;;;;;5092408;28;20040;-62
2022/01/06 06:25:42;;;;;;;1999.90;999.90;;;0.70;99.90;;;;;;5093310;28;20090;-62
2022/01/06 06:28:08;;;;;;;1999.90;999.90;;;0.60;99.90;;;;;;5093458;28;20048;-62
2022/01/06 06:30:34;;;;;;;1999.90;999.90;;;0.70;99.90;;;;;;5092641;28;20046;-62
2022/01/06 06:33:01;;;;;;;1999.90;999.90;;;0.70;99.90;;;;;;5092937;28;20052;-62
2022/01/06 06:35:28;;;;;;;1999.90;999.90;;;0.70;99.90;;;;;;5093312;28;20040;-62
2022/01/06 06:37:54;;;;;;;1999.90;999.90;;;0.70;99.90;;;;;;5092240;28;20051;-62
2022/01/06 06:40:22;;;;;;;1999.90;999.90;;;0.70;99.90;;;;;;5092571;28;20047;-62
2022/01/06 06:42:48;;;;;;;1999.90;999.90;;;0.70;99.90;;;;;;5093331;28;20140;-62
2022/01/06 06:45:15;;;;;;;1999.90;999.90;;;0.70;99.90;;;;;;5092616;28;20117;-63
2022/01/06 06:47:41;;;;;;;1999.90;999.90;;;0.70;99.90;;;;;;5092989;28;20077;-63
2022/01/06 06:50:07;;;;;;;1999.90;999.90;;;0.60;99.90;;;;;;5092441;28;20048;-62
2022/01/06 06:52:33;;;;;;;1999.90;999.90;;;0.60;99.90;;;;;;5092706;28;20036;-62
2022/01/06 06:54:59;;;;;;;1999.90;999.90;;;0.70;99.90;;;;;;5074021;28;20555;-62
2022/01/06 06:57:25;;;;;;;1999.90;999.90;;;0.80;99.90;;;;;;5092239;28;20044;-62
2022/01/06 06:59:51;;;;;;;1999.90;999.90;;;1.00;99.90;;;;;;5092712;28;20052;-62
2022/01/06 07:02:17;;;;;;;1999.90;999.90;;;1.00;99.90;;;;;;5092744;28;20044;-62
2022/01/06 07:04:42;;;;;;;1999.90;999.90;;;1.10;99.90;;;;;;5092071;28;20101;-62
2022/01/06 07:07:08;;;;;;;1999.90;999.90;;;1.20;99.90;;;;;;5092614;28;20047;-62
2022/01/06 07:09:34;;;;;;;1999.90;999.90;;;1.20;99.90;;;;;;5093880;28;20048;-62
2022/01/06 07:11:59;;;;;;;1999.90;999.90;;;1.30;99.90;;;;;;5100541;28;20052;-62
2022/01/06 07:14:25;;;;;;;1999.90;999.90;;;1.30;99.90;;;;;;5103709;28;20096;-62
2022/01/06 07:16:51;;;;;;;1999.90;999.90;;;1.30;99.90;;;;;;5101660;28;20036;-63
2022/01/06 07:19:17;;;;;;;1999.90;999.90;;;1.30;99.90;;;;;;5102633;28;20043;-63
2022/01/06 07:21:42;;;;;;;1999.90;999.90;;;1.30;99.90;;;;;;5103463;28;20422;-63
2022/01/06 07:24:08;;;;;;;1999.90;999.90;;;1.20;99.90;;;;;;5105540;28;20089;-63
2022/01/06 07:26:34;;;;;;;1999.90;999.90;;;1.10;99.90;;;;;;5108781;28;20408;-62
2022/01/06 07:29:00;;;;;;;1999.90;999.90;;;0.90;99.90;;;;;;5117258;28;20089;-63
2022/01/06 07:31:25;;;;;;;1999.90;999.90;;;0.70;99.90;;;;;;5116854;28;20059;-63
2022/01/06 07:33:51;;;;;;;1999.90;999.90;;;0.50;99.90;;;;;;5106731;28;20052;-63
2022/01/06 07:36:17;;;;;;;1999.90;999.90;;;0.50;99.90;;;;;;5105927;28;20042;-63
2022/01/06 07:38:43;;;;;;;1999.90;999.90;;;0.40;99.90;;;;;;5109984;28;20083;-63
2022/01/06 07:41:08;;;;;;;1999.90;999.90;;;0.40;99.90;;;;;;5096016;28;20080;-63
2022/01/06 07:43:34;;;;;;;1999.90;999.90;;;0.20;99.90;;;;;;5096341;28;20052;-63
2022/01/06 07:46:00;;;;;;;1999.90;999.90;;;0.20;99.90;;;;;;5096245;28;20040;-63
2022/01/06 07:48:30;;;;;;;1999.90;999.90;;;0.20;99.90;;;;;;5095757;28;20040;-63
2022/01/06 07:50:56;;;;;;;1999.90;999.90;;;0.20;99.90;;;;;;5096117;28;20105;-62
2022/01/06 07:53:22;;;;;;;1999.90;999.90;;;0.20;99.90;;;;;;5096373;28;20047;-63
2022/01/06 07:55:48;;;;;;;1999.90;999.90;;;0.20;99.90;;;;;;5095534;28;20496;-63
2022/01/06 07:58:13;;;;;;;1999.90;999.90;;;0.30;99.90;;;;;;5096178;28;20051;-63
2022/01/06 08:00:39;;;;;;;1999.90;999.90;;;0.40;99.90;;;;;;5095359;28;20040;-62
2022/01/06 08:03:05;;;;;;;1999.90;999.90;;;0.40;99.90;;;;;;5095671;28;20447;-62
2022/01/06 08:05:31;;;;;;;1999.90;999.90;;;0.40;99.90;;;;;;5096029;28;20055;-62
2022/01/06 08:07:57;;;;;;;1999.90;999.90;;;0.50;99.90;;;;;;5095436;28;20048;-62
2022/01/06 08:10:23;;;;;;;1999.90;999.90;;;0.70;99.90;;;;;;5095350;28;20062;-62
2022/01/06 08:12:49;;;;;;;1999.90;999.90;;;0.90;99.90;;;;;;5095748;28;20404;-62
2022/01/06 08:15:15;;;;;;;1999.90;999.90;;;1.00;99.90;;;;;;5098890;28;20505;-62
2022/01/06 08:17:41;;;;;;;1999.90;999.90;;;1.10;99.90;;;;;;5103586;28;20093;-62
2022/01/06 08:20:08;;;;;;;1999.90;999.90;;;1.00;99.90;;;;;;5106437;28;20048;-62
2022/01/06 08:22:35;;;;;;;1999.90;999.90;;;1.00;99.90;;;;;;5115226;28;20040;-61
2022/01/06 08:25:05;;;;;;;1999.90;999.90;;;1.10;99.90;;;;;;5116076;28;20390;-62
2022/01/06 08:27:31;;;;;;;1999.90;999.90;;;1.00;99.90;;;;;;5105766;28;20121;-62
2022/01/06 08:29:57;;;;;;;1999.90;999.90;;;1.10;99.90;;;;;;5094783;28;20459;-62
2022/01/06 08:32:23;;;;;;;1999.90;999.90;;;1.10;99.90;;;;;;5095353;28;20553;-62
2022/01/06 08:34:48;;;;;;;1999.90;999.90;;;1.10;99.90;;;;;;5095204;28;20059;-61
2022/01/06 08:37:15;;;;;;;1999.90;999.90;;;1.00;99.90;;;;;;5090093;28;20047;-62
2022/01/06 08:39:41;;;;;;;1999.90;999.90;;;1.10;99.90;;;;;;5076856;28;20044;-62
2022/01/06 08:42:07;;;;;;;1999.90;999.90;;;1.10;99.90;;;;;;5088601;28;20048;-62
2022/01/06 08:44:34;;;;;;;1999.90;999.90;;;1.10;99.90;;;;;;5094241;28;20072;-62
2022/01/06 08:47:03;;;;;;;1999.90;999.90;;;1.10;99.90;;;;;;5099261;28;20473;-62
2022/01/06 08:49:29;;;;;;;1999.90;999.90;;;1.20;99.90;;;;;;5090410;28;20044;-61
2022/01/06 08:51:55;;;;;;;1999.90;999.90;;;1.20;99.90;;;;;;5094405;28;20044;-61
2022/01/06 08:54:21;;;;;;;1999.90;999.90;;;1.20;99.90;;;;;;5096519;28;20040;-62
2022/01/06 08:56:46;;;;;;;1999.90;999.90;;;1.30;99.90;;;;;;5096456;28;20422;-61
2022/01/06 08:59:12;;;;;;;1999.90;999.90;;;1.30;99.90;;;;;;5098667;28;20051;-62
2022/01/06 09:01:38;;;;;;;1999.90;999.90;;;1.40;99.90;;;;;;5104643;28;20036;-61
2022/01/06 09:04:04;;;;;;;1999.90;999.90;;;1.40;99.90;;;;;;5102346;28;20048;-62
2022/01/06 09:06:30;;;;;;;1999.90;999.90;;;1.50;99.90;;;;;;5085707;28;20036;-61
2022/01/06 09:08:56;;;;;;;1999.90;999.90;;;1.50;99.90;;;;;;5100715;28;20043;-62
2022/01/06 09:11:21;;;;;;;1999.90;999.90;;;1.50;99.90;;;;;;5095244;28;20044;-61
2022/01/06 09:13:47;;;;;;;1999.90;999.90;;;1.60;99.90;;;;;;5097475;28;20093;-62
2022/01/06 09:16:13;;;;;;;1999.90;999.90;;;1.60;99.90;;;;;;5099100;28;20042;-61
2022/01/06 09:18:40;;;;;;;1999.90;999.90;;;1.70;99.90;;;;;;5103727;28;20473;-61
2022/01/06 09:21:07;;;;;;;1999.90;999.90;;;1.70;99.90;;;;;;5101831;28;20132;-61
2022/01/06 09:23:34;;;;;;;1999.90;999.90;;;1.80;99.90;;;;;;5099458;28;20043;-61
2022/01/06 09:26:00;;;;;;;1999.90;999.90;;;1.80;99.90;;;;;;5103193;28;20123;-61
2022/01/06 09:28:26;;;;;;;1999.90;999.90;;;1.90;99.90;;;;;;5083245;28;20310;-62
2022/01/06 09:30:52;;;;;;;1999.90;999.90;;;1.90;99.90;;;;;;5075693;28;20047;-62
2022/01/06 09:33:19;;;;;;;1999.90;999.90;;;2.00;99.90;;;;;;5093758;28;20543;-62
2022/01/06 09:35:46;;;;;;;1999.90;999.90;;;2.00;99.90;;;;;;5094446;28;20390;-62
2022/01/06 09:38:13;;;;;;;1999.90;999.90;;;2.00;99.90;;;;;;5093317;28;20036;-62
2022/01/06 09:40:41;;;;;;;1999.90;999.90;;;2.00;99.90;;;;;;5092903;28;20048;-62
2022/01/06 09:43:07;;;;;;;1999.90;999.90;;;2.00;99.90;;;;;;5081754;28;20037;-62
2022/01/06 09:45:34;;;;;;;1999.90;999.90;;;2.10;99.90;;;;;;5072772;28;20067;-62
2022/01/06 09:48:00;;;;;;;1999.90;999.90;;;2.30;99.90;;;;;;5090177;28;20499;-62
2022/01/06 09:50:27;;;;;;;1999.90;999.90;;;2.40;99.90;;;;;;5093669;28;20048;-62
2022/01/06 09:52:52;;;;;;;1999.90;999.90;;;2.60;99.90;;;;;;5093921;28;20170;-62
2022/01/06 09:55:21;;;;;;;1999.90;999.90;;;2.80;99.90;;;;;;5093124;28;20118;-62
2022/01/06 09:57:55;;;;;;;1999.90;999.90;;;3.20;99.90;;;;;;5093842;28;20052;-62
2022/01/06 10:00:21;;;;;;;1999.90;999.90;;;3.50;99.90;;;;;;5093151;28;20205;-62
2022/01/06 10:02:53;;;;;;;1999.90;999.90;;;4.30;99.90;;;;;;5099439;28;20043;-62
2022/01/06 10:05:19;;;;;;;1999.90;999.90;;;5.10;99.90;;;;;;5099208;28;20483;-63
2022/01/06 10:07:45;;;;;;;1999.90;999.90;;;5.70;99.90;;;;;;5095372;28;20040;-63
2022/01/06 10:10:13;;;;;;;1999.90;999.90;;;6.20;99.90;;;;;;5093560;28;20047;-62
2022/01/06 10:12:40;;;;;;;1999.90;999.90;;;6.70;99.90;;;;;;5093112;28;20067;-62
2022/01/06 10:15:22;;;;;;;1999.90;999.90;;;7.20;99.90;;;;;;5092739;28;20036;-62
2022/01/06 10:17:49;;;;;;;1999.90;999.90;;;7.40;99.90;;;;;;5101842;28;20423;-62
2022/01/06 10:20:18;;;;;;;1999.90;999.90;;;7.70;99.90;;;;;;5093867;28;20124;-62
2022/01/06 10:22:47;;;;;;;1999.90;999.90;;;7.70;99.90;;;;;;5100551;28;20067;-62
2022/01/06 10:25:13;;;;;;;1999.90;999.90;;;7.40;99.90;;;;;;5103864;28;20077;-63
2022/01/06 10:27:41;;;;;;;1999.90;999.90;;;7.10;99.90;;;;;;5096307;28;20469;-62
2022/01/06 10:30:08;;;;;;;1999.90;999.90;;;7.00;99.90;;;;;;5092235;28;20539;-62
2022/01/06 10:32:35;;;;;;;1999.90;999.90;;;7.00;99.90;;;;;;5093284;28;20075;-62
2022/01/06 10:35:03;;;;;;;1999.90;999.90;;;6.60;99.90;;;;;;5093315;28;20048;-62
2022/01/06 10:37:40;;;;;;;1999.90;999.90;;;6.80;99.90;;;;;;5092058;28;20048;-62
2022/01/06 10:40:13;;;;;;;1999.90;999.90;;;7.00;99.90;;;;;;5095585;28;20051;-62
2022/01/06 10:42:42;;;;;;;1999.90;999.90;;;7.20;99.90;;;;;;5098330;28;20118;-63
2022/01/06 10:45:13;;;;;;;1999.90;999.90;;;7.30;99.90;;;;;;5103673;28;20047;-62
2022/01/06 10:47:42;;;;;;;1999.90;999.90;;;7.60;99.90;;;;;;5103317;28;20046;-62
2022/01/06 10:50:20;;;;;;;1999.90;999.90;;;7.40;99.90;;;;;;5097070;28;20040;-62
2022/01/06 10:52:48;;;;;;;1999.90;999.90;;;7.60;99.90;;;;;;5101601;28;20074;-62
2022/01/06 10:55:17;;;;;;;1999.90;999.90;;;7.80;99.90;;;;;;5102584;28;20397;-63
2022/01/06 10:58:01;;;;;;;1999.90;999.90;;;7.50;99.90;;;;;;5092949;28;20138;-62
2022/01/06 11:00:30;;;;;;;1999.90;999.90;;;7.20;99.90;;;;;;5094613;28;20110;-62
2022/01/06 11:03:16;;;;;;;1999.90;999.90;;;7.00;99.90;;;;;;5112541;28;20052;-63
2022/01/06 11:05:46;;;;;;;1999.90;999.90;;;7.10;99.90;;;;;;5073853;28;20095;-63
2022/01/06 11:08:13;;;;;;;1999.90;999.90;;;7.50;99.90;;;;;;5092945;28;20123;-63
2022/01/06 11:10:47;;;;;;;1999.90;999.90;;;7.70;99.90;;;;;;5091915;28;20044;-62
2022/01/06 11:13:14;;;;;;;1999.90;999.90;;;8.20;99.90;;;;;;5092335;28;20064;-62
2022/01/06 11:15:41;;;;;;;1999.90;999.90;;;8.00;99.90;;;;;;5092635;28;20123;-63
2022/01/06 11:18:07;;;;;;;1999.90;999.90;;;7.70;99.90;;;;;;5091971;28;20092;-63
2022/01/06 11:20:33;;;;;;;1999.90;999.90;;;7.50;99.90;;;;;;5092523;28;20079;-63
2022/01/06 11:23:00;;;;;;;1999.90;999.90;;;7.30;99.90;;;;;;5092809;28;20082;-63
2022/01/06 11:25:36;;;;;;;1999.90;999.90;;;7.00;99.90;;;;;;5091768;28;20565;-63
2022/01/06 11:28:05;;;;;;;1999.90;999.90;;;6.70;99.90;;;;;;5092496;28;20054;-62
2022/01/06 11:30:43;;;;;;;1999.90;999.90;;;6.80;99.90;;;;;;5074646;28;20056;-62
2022/01/06 11:33:11;;;;;;;1999.90;999.90;;;7.30;99.90;;;;;;5091873;28;20048;-63
2022/01/06 11:35:50;;;;;;;1999.90;999.90;;;7.90;99.90;;;;;;5092259;28;20067;-62
2022/01/06 11:38:19;;;;;;;1999.90;999.90;;;8.20;99.90;;;;;;5092686;28;20048;-62
2022/01/06 11:40:47;;;;;;;1999.90;999.90;;;8.30;99.90;;;;;;5091852;28;20086;-62
2022/01/06 11:43:13;;;;;;;1999.90;999.90;;;8.00;99.90;;;;;;5091847;28;20048;-63
2022/01/06 11:45:40;;;;;;;1999.90;999.90;;;7.50;99.90;;;;;;5090515;28;20097;-62
2022/01/06 11:48:16;;;;;;;1999.90;999.90;;;7.10;99.90;;;;;;5092359;28;20542;-63
2022/01/06 11:50:45;;;;;;;1999.90;999.90;;;6.80;99.90;;;;;;5091868;28;20043;-63
2022/01/06 11:53:11;;;;;;;1999.90;999.90;;;6.50;99.90;;;;;;5091841;28;20123;-63
2022/01/06 11:55:40;;;;;;;1999.90;999.90;;;6.20;99.90;;;;;;5092618;28;20134;-62
2022/01/06 11:58:09;;;;;;;1999.90;999.90;;;6.10;99.90;;;;;;5092062;28;20122;-62
2022/01/06 12:00:37;;;;;;;1999.90;999.90;;;6.00;99.90;;;;;;5091314;28;20486;-63
2022/01/06 12:03:07;;;;;;;1999.90;999.90;;;6.00;99.90;;;;;;5092378;28;20131;-62
2022/01/06 12:05:42;;;;;;;1999.90;999.90;;;6.00;99.90;;;;;;5092192;28;20222;-63
2022/01/06 12:08:08;;;;;;;1999.90;999.90;;;6.10;99.90;;;;;;5091119;28;20044;-62
2022/01/06 12:10:40;;;;;;;1999.90;999.90;;;6.00;99.90;;;;;;5095797;28;20043;-62
2022/01/06 12:13:06;;;;;;;1999.90;999.90;;;5.90;99.90;;;;;;5095502;28;20485;-62